Time;durP1;ratioP1;P1;durP2;ratioP2;P2;SDS_P1;SDS_P2;PMS_P1;PMS_P2;Temp;Humidity;BMP_temperature;BMP_pressure;BME280_temperature;BME280_humidity;BME280_pressure;Samples;Min_cycle;Max_cycle;Signal;HPM_P1;HPM_P2
2022/03/11 00:01:46;;;;;;;11.70;9.10;;;;;;;-145.14;100.00;70583.66;4994817;28;20537;-74
2022/03/11 00:04:12;;;;;;;10.23;8.10;;;;;;;-145.14;100.00;70583.66;4995485;28;20303;-74
2022/03/11 00:06:37;;;;;;;13.30;8.73;;;;;;;-145.14;100.00;70583.66;4994914;28;20189;-74
2022/03/11 00:09:03;;;;;;;11.43;8.57;;;;;;;-145.14;100.00;70583.66;4993752;28;20225;-74
2022/03/11 00:11:29;;;;;;;14.50;9.63;;;;;;;-145.14;100.00;70583.66;4995832;28;20277;-74
2022/03/11 00:13:55;;;;;;;12.17;9.30;;;;;;;-145.14;100.00;70583.66;4995032;28;20515;-74
2022/03/11 00:16:20;;;;;;;18.37;10.63;;;;;;;-145.14;100.00;70583.66;4992432;28;20280;-74
2022/03/11 00:18:46;;;;;;;14.20;10.20;;;;;;;-145.14;100.00;70583.66;4996330;28;20268;-73
2022/03/11 00:21:12;;;;;;;15.60;10.00;;;;;;;-145.14;100.00;70583.66;4993868;28;20680;-74
2022/03/11 00:23:40;;;;;;;15.80;10.40;;;;;;;-145.14;100.00;70583.66;4995748;28;21244;-74
2022/03/11 00:26:05;;;;;;;13.50;10.93;;;;;;;-145.14;100.00;70583.66;4997079;28;20470;-73
2022/03/11 00:28:31;;;;;;;12.30;9.70;;;;;;;-145.14;100.00;70583.66;4996125;28;20444;-73
2022/03/11 00:30:57;;;;;;;17.73;10.47;;;;;;;-145.14;100.00;70583.66;4997370;28;20603;-73
2022/03/11 00:33:23;;;;;;;15.80;10.20;;;;;;;-145.14;100.00;70583.66;4993989;28;20188;-73
2022/03/11 00:35:49;;;;;;;15.33;10.87;;;;;;;-145.14;100.00;70583.66;4993257;28;20544;-73
2022/03/11 00:38:14;;;;;;;14.03;10.13;;;;;;;-145.14;100.00;70583.66;4989970;28;20204;-73
2022/03/11 00:40:40;;;;;;;16.53;11.27;;;;;;;-145.14;100.00;70583.66;4995447;28;20396;-73
2022/03/11 00:43:05;;;;;;;19.33;12.87;;;;;;;-145.14;100.00;70583.66;4994066;28;20847;-75
2022/03/11 00:45:31;;;;;;;18.97;12.60;;;;;;;-145.14;100.00;70583.66;4995894;28;20201;-75
2022/03/11 00:47:56;;;;;;;19.00;11.90;;;;;;;-145.14;100.00;70583.66;4991861;28;20272;-75
2022/03/11 00:50:22;;;;;;;17.30;12.40;;;;;;;-145.14;100.00;70583.66;4992961;28;20317;-75
2022/03/11 00:52:49;;;;;;;18.13;13.17;;;;;;;-145.14;100.00;70583.66;4991648;28;20196;-75
2022/03/11 00:55:15;;;;;;;17.07;13.37;;;;;;;-145.14;100.00;70583.66;4993612;28;20743;-75
2022/03/11 00:57:40;;;;;;;17.73;12.53;;;;;;;-145.14;100.00;70583.66;4993588;28;20452;-75
2022/03/11 01:00:07;;;;;;;17.67;12.43;;;;;;;-145.14;100.00;70583.66;4992435;28;20217;-75
2022/03/11 01:02:34;;;;;;;20.10;13.37;;;;;;;-145.14;100.00;70583.66;4989249;28;22035;-75
2022/03/11 01:05:00;;;;;;;18.13;13.23;;;;;;;-145.14;100.00;70583.66;4995118;28;20519;-73
2022/03/11 01:07:25;;;;;;;19.33;12.93;;;;;;;-145.14;100.00;70583.66;4992301;28;20543;-73
2022/03/11 01:09:51;;;;;;;18.30;14.00;;;;;;;-145.14;100.00;70583.66;4994079;28;20218;-73
2022/03/11 01:12:16;;;;;;;18.20;12.80;;;;;;;-145.14;100.00;70583.66;4994177;28;25735;-73
2022/03/11 01:14:42;;;;;;;19.07;13.30;;;;;;;-145.14;100.00;70583.66;4994744;28;20193;-73
2022/03/11 01:17:08;;;;;;;20.53;14.90;;;;;;;-145.14;100.00;70583.66;4987048;28;20197;-73
2022/03/11 01:19:33;;;;;;;16.37;13.57;;;;;;;-145.14;100.00;70583.66;4991021;28;20221;-73
2022/03/11 01:21:58;;;;;;;19.13;13.37;;;;;;;-145.14;100.00;70583.66;4989914;28;20208;-73
2022/03/11 01:24:24;;;;;;;21.70;13.87;;;;;;;-145.14;100.00;70583.66;4993149;28;20280;-73
2022/03/11 01:26:50;;;;;;;17.20;13.27;;;;;;;-145.14;100.00;70583.66;4994827;28;20288;-73
2022/03/11 01:29:15;;;;;;;19.60;14.07;;;;;;;-145.14;100.00;70583.66;4990922;28;23566;-73
2022/03/11 01:31:40;;;;;;;18.30;14.17;;;;;;;-145.14;100.00;70583.66;4990527;28;20280;-73
2022/03/11 01:34:08;;;;;;;19.70;14.00;;;;;;;-145.14;100.00;70583.66;4989320;28;20236;-74
2022/03/11 01:36:34;;;;;;;18.23;13.53;;;;;;;-145.14;100.00;70583.66;4988782;28;20439;-76
2022/03/11 01:39:00;;;;;;;19.70;14.27;;;;;;;-145.14;100.00;70583.66;5008363;28;21049;-75
2022/03/11 01:41:25;;;;;;;20.37;14.07;;;;;;;-145.14;100.00;70583.66;4994466;28;20275;-76
2022/03/11 01:43:51;;;;;;;20.80;15.67;;;;;;;-145.14;100.00;70583.66;4992819;28;20181;-76
2022/03/11 01:46:16;;;;;;;18.23;14.37;;;;;;;-145.14;100.00;70583.66;4992400;28;20688;-75
2022/03/11 01:48:42;;;;;;;20.23;14.50;;;;;;;-145.14;100.00;70583.66;4991133;28;20202;-76
2022/03/11 01:51:07;;;;;;;17.20;13.07;;;;;;;-145.14;100.00;70583.66;4994692;28;20234;-76
2022/03/11 01:53:33;;;;;;;19.07;13.73;;;;;;;-145.14;100.00;70583.66;4990187;28;20185;-76
2022/03/11 01:55:58;;;;;;;18.10;13.67;;;;;;;-145.14;100.00;70583.66;4994744;28;20189;-75
2022/03/11 01:58:25;;;;;;;22.90;15.67;;;;;;;-145.14;100.00;70583.66;4994854;28;20311;-76
2022/03/11 02:00:50;;;;;;;19.40;14.00;;;;;;;-145.14;100.00;70583.66;4992271;28;21157;-75
2022/03/11 02:03:19;;;;;;;21.03;14.40;;;;;;;-145.14;100.00;70583.66;4991591;28;20439;-76
2022/03/11 02:05:44;;;;;;;20.80;14.10;;;;;;;-145.14;100.00;70583.66;4983797;28;20284;-75
2022/03/11 02:08:10;;;;;;;24.60;14.30;;;;;;;-145.14;100.00;70583.66;4993255;28;20448;-75
2022/03/11 02:10:36;;;;;;;22.50;15.27;;;;;;;-145.14;100.00;70583.66;4996463;28;20764;-74
2022/03/11 02:13:05;;;;;;;19.73;14.60;;;;;;;-145.14;100.00;70583.66;4992533;28;20213;-74
2022/03/11 02:15:31;;;;;;;17.23;13.03;;;;;;;-145.14;100.00;70583.66;4993700;28;20188;-74
2022/03/11 02:17:57;;;;;;;19.70;14.47;;;;;;;-145.14;100.00;70583.66;4992862;28;20510;-74
2022/03/11 02:20:23;;;;;;;18.30;14.63;;;;;;;-145.14;100.00;70583.66;4991646;28;20460;-74
2022/03/11 02:22:51;;;;;;;18.63;13.50;;;;;;;-145.14;100.00;70583.66;5006065;28;20231;-75
2022/03/11 02:25:16;;;;;;;17.43;14.03;;;;;;;-145.14;100.00;70583.66;4993555;28;20292;-75
2022/03/11 02:27:42;;;;;;;20.90;14.43;;;;;;;-145.14;100.00;70583.66;4997198;28;20519;-75
2022/03/11 02:30:12;;;;;;;18.87;13.30;;;;;;;-145.14;100.00;70583.66;4988228;28;20209;-75
2022/03/11 02:32:38;;;;;;;20.57;14.50;;;;;;;-145.14;100.00;70583.66;5006891;28;20190;-75
2022/03/11 02:35:04;;;;;;;19.90;14.10;;;;;;;-145.14;100.00;70583.66;4986444;28;20450;-75
2022/03/11 02:37:29;;;;;;;18.40;13.43;;;;;;;-145.14;100.00;70583.66;4989216;28;20728;-74
2022/03/11 02:39:56;;;;;;;17.77;13.93;;;;;;;-145.14;100.00;70583.66;4991788;28;20496;-74
2022/03/11 02:42:22;;;;;;;16.80;13.17;;;;;;;-145.14;100.00;70583.66;4994098;28;20193;-75
2022/03/11 02:44:48;;;;;;;17.87;12.40;;;;;;;-145.14;100.00;70583.66;4994849;28;20524;-74
2022/03/11 02:47:13;;;;;;;17.77;13.50;;;;;;;-145.14;100.00;70583.66;4991834;28;20937;-75
2022/03/11 02:49:39;;;;;;;20.07;14.87;;;;;;;-145.14;100.00;70583.66;4992410;28;20215;-74
2022/03/11 02:52:05;;;;;;;17.70;13.60;;;;;;;-145.14;100.00;70583.66;4988348;28;20275;-74
2022/03/11 02:54:30;;;;;;;23.63;15.20;;;;;;;-145.14;100.00;70583.66;4991663;28;20186;-74
2022/03/11 02:56:56;;;;;;;18.90;14.87;;;;;;;-145.14;100.00;70583.66;4992292;28;20508;-74
2022/03/11 03:01:57;;;;;;;17.50;13.53;;;;;;;-145.14;100.00;70583.66;4961732;28;20238;-68
2022/03/11 03:04:22;;;;;;;20.97;14.07;;;;;;;-145.14;100.00;70583.66;4974789;28;20441;-67
2022/03/11 03:06:48;;;;;;;17.30;13.60;;;;;;;-145.14;100.00;70583.66;4974565;28;20190;-68
2022/03/11 03:09:13;;;;;;;20.77;14.07;;;;;;;-145.14;100.00;70583.66;4976576;28;20810;-68
2022/03/11 03:11:39;;;;;;;16.47;13.30;;;;;;;-145.14;100.00;70583.66;4969635;28;20297;-70
2022/03/11 03:14:05;;;;;;;18.03;13.20;;;;;;;-145.14;100.00;70583.66;4973612;28;20728;-70
2022/03/11 03:16:30;;;;;;;16.93;12.33;;;;;;;-145.14;100.00;70583.66;4975634;28;20189;-70
2022/03/11 03:18:56;;;;;;;18.80;13.17;;;;;;;-145.14;100.00;70583.66;4974574;28;20194;-70
2022/03/11 03:21:22;;;;;;;19.10;13.80;;;;;;;-145.14;100.00;70583.66;4969484;28;20735;-67
2022/03/11 03:23:47;;;;;;;16.23;12.87;;;;;;;-145.14;100.00;70583.66;4971651;28;20667;-68
2022/03/11 03:26:13;;;;;;;17.80;14.10;;;;;;;-145.14;100.00;70583.66;4988198;28;20477;-67
2022/03/11 03:28:38;;;;;;;17.77;13.43;;;;;;;-145.14;100.00;70583.66;4970855;28;20190;-68
2022/03/11 03:31:04;;;;;;;16.77;12.77;;;;;;;-145.14;100.00;70583.66;4971865;28;20210;-67
2022/03/11 03:33:31;;;;;;;20.90;13.10;;;;;;;-145.14;100.00;70583.66;4970921;28;20608;-67
2022/03/11 03:35:56;;;;;;;17.13;12.70;;;;;;;-145.14;100.00;70583.66;4973083;28;20281;-67
2022/03/11 03:38:22;;;;;;;16.43;12.30;;;;;;;-145.14;100.00;70583.66;4977068;28;20451;-67
2022/03/11 03:40:47;;;;;;;17.03;12.37;;;;;;;-145.14;100.00;70583.66;4978702;28;20237;-67
2022/03/11 03:43:13;;;;;;;15.43;12.50;;;;;;;-145.14;100.00;70583.66;4974677;28;20639;-67
2022/03/11 03:45:40;;;;;;;15.17;12.90;;;;;;;-145.14;100.00;70583.66;4977563;28;20220;-68
2022/03/11 03:48:05;;;;;;;17.83;14.07;;;;;;;-145.14;100.00;70583.66;4976433;28;20182;-67
2022/03/11 03:50:31;;;;;;;15.83;12.37;;;;;;;-145.14;100.00;70583.66;4974868;28;20473;-68
2022/03/11 03:52:57;;;;;;;15.37;12.00;;;;;;;-145.14;100.00;70583.66;4977695;28;20193;-67
2022/03/11 03:55:22;;;;;;;18.20;13.10;;;;;;;-145.14;100.00;70583.66;4977717;28;20178;-67
2022/03/11 03:57:48;;;;;;;16.77;12.63;;;;;;;-145.14;100.00;70583.66;4973789;28;20197;-67
2022/03/11 04:00:14;;;;;;;14.97;11.93;;;;;;;-145.14;100.00;70583.66;4969778;28;20757;-67
2022/03/11 04:02:47;;;;;;;17.43;12.63;;;;;;;-145.14;100.00;70583.66;4973690;28;20190;-68
2022/03/11 04:05:13;;;;;;;15.83;12.40;;;;;;;-145.14;100.00;70583.66;4977141;28;20599;-68
2022/03/11 04:07:43;;;;;;;17.90;12.60;;;;;;;-145.14;100.00;70583.66;4975408;28;21082;-67
2022/03/11 04:10:12;;;;;;;13.70;11.63;;;;;;;-145.14;100.00;70583.66;4973745;28;20460;-67
2022/03/11 04:12:40;;;;;;;17.17;12.67;;;;;;;-145.14;100.00;70583.66;4976166;28;20890;-67
2022/03/11 04:15:06;;;;;;;16.07;12.67;;;;;;;-145.14;100.00;70583.66;4975910;28;20529;-70
2022/03/11 04:17:32;;;;;;;16.10;13.33;;;;;;;-145.14;100.00;70583.66;4980893;28;20479;-70
2022/03/11 04:19:59;;;;;;;14.50;11.33;;;;;;;-145.14;100.00;70583.66;4976869;28;20488;-70
2022/03/11 04:22:25;;;;;;;14.70;12.20;;;;;;;-145.14;100.00;70583.66;4976276;28;20193;-69
2022/03/11 04:24:51;;;;;;;16.57;12.57;;;;;;;-145.14;100.00;70583.66;4979806;28;20469;-70
2022/03/11 04:27:16;;;;;;;14.80;12.03;;;;;;;-145.14;100.00;70583.66;4972442;28;20449;-70
2022/03/11 04:29:42;;;;;;;15.17;12.37;;;;;;;-145.14;100.00;70583.66;4979118;28;20221;-69
2022/03/11 04:32:08;;;;;;;14.50;12.33;;;;;;;-145.14;100.00;70583.66;4976108;28;20193;-70
2022/03/11 04:34:34;;;;;;;17.47;12.70;;;;;;;-145.14;100.00;70583.66;4978686;28;20233;-70
2022/03/11 04:36:59;;;;;;;14.87;12.03;;;;;;;-145.14;100.00;70583.66;4974334;28;20512;-70
2022/03/11 04:39:26;;;;;;;18.97;12.17;;;;;;;-145.14;100.00;70583.66;4979045;28;20527;-70
2022/03/11 04:41:55;;;;;;;14.07;12.10;;;;;;;-145.14;100.00;70583.66;4973678;28;20228;-70
2022/03/11 04:44:20;;;;;;;15.07;12.33;;;;;;;-145.14;100.00;70583.66;4974370;28;20785;-70
2022/03/11 04:46:46;;;;;;;15.10;12.20;;;;;;;-145.14;100.00;70583.66;4972260;28;21076;-67
2022/03/11 04:49:12;;;;;;;16.33;12.37;;;;;;;-145.14;100.00;70583.66;4974070;28;20221;-69
2022/03/11 04:51:38;;;;;;;15.90;11.90;;;;;;;-145.14;100.00;70583.66;4973247;28;21042;-70
2022/03/11 04:54:05;;;;;;;15.47;12.27;;;;;;;-145.14;100.00;70583.66;4976625;28;20450;-70
2022/03/11 04:56:32;;;;;;;13.77;10.70;;;;;;;-145.14;100.00;70583.66;4974166;28;20437;-69
2022/03/11 04:59:00;;;;;;;17.20;11.77;;;;;;;-145.14;100.00;70583.66;4973448;28;20433;-69
2022/03/11 05:01:26;;;;;;;12.73;10.67;;;;;;;-145.14;100.00;70583.66;4972461;28;20459;-70
2022/03/11 05:03:51;;;;;;;16.40;12.60;;;;;;;-145.14;100.00;70583.66;4963019;28;20475;-70
2022/03/11 05:06:17;;;;;;;17.47;12.83;;;;;;;-145.14;100.00;70583.66;4959190;28;20321;-69
2022/03/11 05:08:43;;;;;;;16.33;10.80;;;;;;;-145.14;100.00;70583.66;4972908;28;20229;-69
2022/03/11 05:11:08;;;;;;;14.93;11.23;;;;;;;-145.14;100.00;70583.66;4971824;28;20209;-70
2022/03/11 05:13:34;;;;;;;15.27;11.63;;;;;;;-145.14;100.00;70583.66;4970356;28;20499;-70
2022/03/11 05:16:00;;;;;;;15.33;12.40;;;;;;;-145.14;100.00;70583.66;4967214;28;20698;-70
2022/03/11 05:18:26;;;;;;;14.47;11.77;;;;;;;-145.14;100.00;70583.66;4973276;28;20252;-69
2022/03/11 05:20:52;;;;;;;13.90;11.23;;;;;;;-145.14;100.00;70583.66;4970333;28;20300;-69
2022/03/11 05:23:17;;;;;;;15.23;12.33;;;;;;;-145.14;100.00;70583.66;4969884;28;20185;-69
2022/03/11 05:25:43;;;;;;;13.23;11.30;;;;;;;-145.14;100.00;70583.66;4965276;28;21373;-70
2022/03/11 05:28:09;;;;;;;13.70;11.33;;;;;;;-145.14;100.00;70583.66;4969483;28;20650;-69
2022/03/11 05:30:36;;;;;;;15.93;12.20;;;;;;;-145.14;100.00;70583.66;4965055;28;20236;-69
2022/03/11 05:33:02;;;;;;;14.73;11.83;;;;;;;-145.14;100.00;70583.66;4971032;28;20434;-70
2022/03/11 05:35:28;;;;;;;14.17;11.40;;;;;;;-145.14;100.00;70583.66;4962045;28;20445;-70
2022/03/11 05:37:53;;;;;;;13.37;10.70;;;;;;;-145.14;100.00;70583.66;4966856;28;20444;-69
2022/03/11 05:40:19;;;;;;;14.67;10.83;;;;;;;-145.14;100.00;70583.66;4969045;28;20212;-69
2022/03/11 05:42:44;;;;;;;15.27;11.67;;;;;;;-145.14;100.00;70583.66;4969462;28;20817;-69
2022/03/11 05:45:11;;;;;;;13.90;11.30;;;;;;;-145.14;100.00;70583.66;4968653;28;20208;-69
2022/03/11 05:47:36;;;;;;;15.40;11.50;;;;;;;-145.14;100.00;70583.66;4967733;28;20191;-70
2022/03/11 05:50:03;;;;;;;15.47;11.60;;;;;;;-145.14;100.00;70583.66;4970697;28;20995;-70
2022/03/11 05:52:28;;;;;;;14.00;10.23;;;;;;;-145.14;100.00;70583.66;4962871;28;20182;-69
2022/03/11 05:54:54;;;;;;;19.03;12.87;;;;;;;-145.14;100.00;70583.66;4964309;28;20495;-70
2022/03/11 05:57:20;;;;;;;15.77;11.50;;;;;;;-145.14;100.00;70583.66;4959805;28;20182;-69
2022/03/11 05:59:45;;;;;;;14.53;11.33;;;;;;;-145.14;100.00;70583.66;4968120;28;20206;-70
2022/03/11 06:02:10;;;;;;;17.77;11.30;;;;;;;-145.14;100.00;70583.66;4968619;28;20949;-69
2022/03/11 06:04:37;;;;;;;15.60;12.80;;;;;;;-145.14;100.00;70583.66;4962797;28;20189;-70
2022/03/11 06:07:03;;;;;;;15.27;11.93;;;;;;;-145.14;100.00;70583.66;4969041;28;20225;-69
2022/03/11 06:09:28;;;;;;;13.43;10.57;;;;;;;-145.14;100.00;70583.66;4968585;28;20520;-70
2022/03/11 06:11:54;;;;;;;19.20;12.67;;;;;;;-145.14;100.00;70583.66;4962960;28;20433;-70
2022/03/11 06:14:20;;;;;;;14.40;10.90;;;;;;;-145.14;100.00;70583.66;4961898;28;20692;-70
2022/03/11 06:16:45;;;;;;;15.67;11.40;;;;;;;-145.14;100.00;70583.66;4969815;28;20244;-70
2022/03/11 06:19:11;;;;;;;16.30;11.20;;;;;;;-145.14;100.00;70583.66;4954568;28;20194;-70
2022/03/11 06:21:36;;;;;;;14.37;10.80;;;;;;;-145.14;100.00;70583.66;4964622;28;20212;-70
2022/03/11 06:24:02;;;;;;;18.87;12.30;;;;;;;-145.14;100.00;70583.66;4965422;28;20204;-70
2022/03/11 06:26:28;;;;;;;17.37;11.50;;;;;;;-145.14;100.00;70583.66;4967096;28;20411;-69
2022/03/11 06:28:53;;;;;;;15.23;11.07;;;;;;;-145.14;100.00;70583.66;4964061;28;20445;-69
2022/03/11 06:31:19;;;;;;;16.50;12.27;;;;;;;-145.14;100.00;70583.66;4966104;28;20339;-69
2022/03/11 06:33:44;;;;;;;23.57;11.40;;;;;;;-145.14;100.00;70583.66;4963315;28;20812;-69
2022/03/11 06:36:10;;;;;;;13.90;10.90;;;;;;;-145.14;100.00;70583.66;4956377;28;20280;-69
2022/03/11 06:38:35;;;;;;;17.00;11.57;;;;;;;-145.14;100.00;70583.66;4962928;28;20192;-69
2022/03/11 06:41:01;;;;;;;15.07;11.83;;;;;;;-145.14;100.00;70583.66;4960290;28;20460;-69
2022/03/11 06:43:26;;;;;;;15.13;10.77;;;;;;;-145.14;100.00;70583.66;4967473;28;20276;-69
2022/03/11 06:45:52;;;;;;;18.20;11.40;;;;;;;-145.14;100.00;70583.66;4957597;28;20209;-69
2022/03/11 06:48:18;;;;;;;18.27;10.97;;;;;;;-145.14;100.00;70583.66;4961573;28;20202;-69
2022/03/11 06:50:44;;;;;;;14.40;10.93;;;;;;;-145.14;100.00;70583.66;4962966;28;20283;-69
2022/03/11 06:53:10;;;;;;;16.97;10.83;;;;;;;-145.14;100.00;70583.66;4960776;28;20457;-69
2022/03/11 06:55:36;;;;;;;15.33;10.90;;;;;;;-145.14;100.00;70583.66;4966820;28;20475;-69
2022/03/11 06:58:01;;;;;;;13.20;11.17;;;;;;;-145.14;100.00;70583.66;4967531;28;20527;-69
2022/03/11 07:00:27;;;;;;;13.50;10.70;;;;;;;-145.14;100.00;70583.66;4965926;28;20212;-69
2022/03/11 07:02:52;;;;;;;15.80;11.47;;;;;;;-145.14;100.00;70583.66;4965401;28;20191;-69
2022/03/11 07:05:18;;;;;;;13.47;10.23;;;;;;;-145.14;100.00;70583.66;4956670;28;20663;-69
2022/03/11 07:07:46;;;;;;;14.53;10.77;;;;;;;-145.14;100.00;70583.66;4962721;28;20189;-69
2022/03/11 07:10:12;;;;;;;13.00;10.17;;;;;;;-145.14;100.00;70583.66;4954367;28;20321;-69
2022/03/11 07:12:38;;;;;;;16.80;11.20;;;;;;;-145.14;100.00;70583.66;4957094;28;20518;-69
2022/03/11 07:15:05;;;;;;;15.83;11.33;;;;;;;-145.14;100.00;70583.66;4977913;28;20440;-69
2022/03/11 07:17:32;;;;;;;15.53;10.70;;;;;;;-145.14;100.00;70583.66;4972928;28;20502;-69
2022/03/11 07:19:57;;;;;;;12.50;10.27;;;;;;;-145.14;100.00;70583.66;4970849;28;20468;-69
2022/03/11 07:22:23;;;;;;;15.13;10.97;;;;;;;-145.14;100.00;70583.66;4972243;28;21003;-70
2022/03/11 07:24:48;;;;;;;12.93;10.03;;;;;;;-145.14;100.00;70583.66;4969968;28;20281;-69
2022/03/11 07:27:15;;;;;;;14.43;10.60;;;;;;;-145.14;100.00;70583.66;4953830;28;20631;-70
2022/03/11 07:29:40;;;;;;;14.70;11.50;;;;;;;-145.14;100.00;70583.66;4960802;28;20198;-70
2022/03/11 07:32:08;;;;;;;16.00;11.30;;;;;;;-145.14;100.00;70583.66;4971314;28;20448;-72
2022/03/11 07:34:34;;;;;;;15.07;10.27;;;;;;;-145.14;100.00;70583.66;4967583;28;20288;-70
2022/03/11 07:36:59;;;;;;;15.17;10.63;;;;;;;-145.14;100.00;70583.66;4966202;28;20506;-70
2022/03/11 07:39:25;;;;;;;14.60;11.43;;;;;;;-145.14;100.00;70583.66;4960259;28;20457;-69
2022/03/11 07:41:51;;;;;;;14.40;9.90;;;;;;;-145.14;100.00;70583.66;4968958;28;20922;-70
2022/03/11 07:44:17;;;;;;;16.40;10.13;;;;;;;-145.14;100.00;70583.66;4968017;28;20194;-70
2022/03/11 07:46:43;;;;;;;13.90;10.83;;;;;;;-145.14;100.00;70583.66;4967112;28;20212;-69
2022/03/11 07:49:09;;;;;;;15.17;10.73;;;;;;;-145.14;100.00;70583.66;4971318;28;21067;-69
2022/03/11 07:51:35;;;;;;;14.13;11.50;;;;;;;-145.14;100.00;70583.66;4970945;28;20479;-69
2022/03/11 07:54:00;;;;;;;16.10;11.60;;;;;;;-145.14;100.00;70583.66;4966616;28;20449;-69
2022/03/11 07:56:26;;;;;;;14.83;12.07;;;;;;;-145.14;100.00;70583.66;4970323;28;20182;-70
2022/03/11 07:58:54;;;;;;;15.93;11.03;;;;;;;-145.14;100.00;70583.66;4969457;28;20196;-70
2022/03/11 08:01:19;;;;;;;13.50;10.20;;;;;;;-145.14;100.00;70583.66;4970100;28;20218;-70
2022/03/11 08:03:45;;;;;;;15.43;10.70;;;;;;;-145.14;100.00;70583.66;4956870;28;21004;-69
2022/03/11 08:06:10;;;;;;;15.00;10.90;;;;;;;-145.14;100.00;70583.66;4965622;28;20725;-70
2022/03/11 08:08:37;;;;;;;13.53;10.80;;;;;;;-145.14;100.00;70583.66;4967820;28;20678;-70
2022/03/11 08:11:03;;;;;;;27.03;10.97;;;;;;;-145.14;100.00;70583.66;4969680;28;20210;-69
2022/03/11 08:13:29;;;;;;;19.07;11.23;;;;;;;-145.14;100.00;70583.66;4967035;28;22119;-69
2022/03/11 08:15:54;;;;;;;14.47;10.70;;;;;;;-145.14;100.00;70583.66;4967590;28;21128;-69
2022/03/11 08:18:20;;;;;;;16.43;10.93;;;;;;;-145.14;100.00;70583.66;4967902;28;20662;-69
2022/03/11 08:20:46;;;;;;;15.00;11.17;;;;;;;-145.14;100.00;70583.66;4967453;28;20293;-69
2022/03/11 08:23:12;;;;;;;15.27;11.60;;;;;;;-145.14;100.00;70583.66;4965207;28;21216;-70
2022/03/11 08:25:38;;;;;;;14.53;10.50;;;;;;;-145.14;100.00;70583.66;4966598;28;20210;-69
2022/03/11 08:28:07;;;;;;;15.40;11.60;;;;;;;-145.14;100.00;70583.66;4962551;28;20364;-69
2022/03/11 08:30:33;;;;;;;13.10;10.27;;;;;;;-145.14;100.00;70583.66;4965897;28;20464;-70
2022/03/11 08:32:59;;;;;;;15.10;11.53;;;;;;;-145.14;100.00;70583.66;4961970;28;20441;-69
2022/03/11 08:35:24;;;;;;;13.40;10.27;;;;;;;-145.14;100.00;70583.66;4972841;28;21132;-69
2022/03/11 08:37:50;;;;;;;13.23;10.87;;;;;;;-145.14;100.00;70583.66;4972412;28;20859;-69
2022/03/11 08:40:17;;;;;;;14.77;10.33;;;;;;;-145.14;100.00;70583.66;4966849;28;20209;-69
2022/03/11 08:42:42;;;;;;;19.70;10.87;;;;;;;-145.14;100.00;70583.66;4968384;28;20213;-69
2022/03/11 08:45:10;;;;;;;14.20;10.73;;;;;;;-145.14;100.00;70583.66;4966025;28;20501;-69
2022/03/11 08:47:35;;;;;;;14.53;10.90;;;;;;;-145.14;100.00;70583.66;4966518;28;20707;-69
2022/03/11 08:50:02;;;;;;;18.90;12.63;;;;;;;-145.14;100.00;70583.66;4969051;28;21431;-69
2022/03/11 08:52:28;;;;;;;15.63;11.20;;;;;;;-145.14;100.00;70583.66;4966755;28;21000;-69
2022/03/11 08:54:54;;;;;;;15.93;10.83;;;;;;;-145.14;100.00;70583.66;4966414;28;20441;-69
2022/03/11 08:57:20;;;;;;;15.27;12.60;;;;;;;-145.14;100.00;70583.66;4966381;28;20966;-69
2022/03/11 08:59:45;;;;;;;13.70;11.00;;;;;;;-145.14;100.00;70583.66;4966509;28;20268;-70
2022/03/11 09:02:13;;;;;;;15.30;11.13;;;;;;;-145.14;100.00;70583.66;4986093;23;20234;-76
2022/03/11 09:04:38;;;;;;;14.57;10.87;;;;;;;-145.14;100.00;70583.66;4982517;28;20189;-76
2022/03/11 09:07:04;;;;;;;14.10;10.47;;;;;;;-145.14;100.00;70583.66;4989365;28;20444;-76
2022/03/11 09:09:32;;;;;;;16.70;10.23;;;;;;;-145.14;100.00;70583.66;4986868;28;20196;-76
2022/03/11 09:11:58;;;;;;;13.23;9.70;;;;;;;-145.14;100.00;70583.66;4985490;28;20221;-76
2022/03/11 09:14:24;;;;;;;24.80;11.30;;;;;;;-145.14;100.00;70583.66;4989441;28;20529;-76
2022/03/11 09:16:49;;;;;;;13.47;11.07;;;;;;;-145.14;100.00;70583.66;4989538;28;20440;-76
2022/03/11 09:19:15;;;;;;;20.73;10.20;;;;;;;-145.14;100.00;70583.66;4980851;28;20467;-76
2022/03/11 09:21:41;;;;;;;14.77;10.53;;;;;;;-145.14;100.00;70583.66;4965902;28;20212;-76
2022/03/11 09:24:07;;;;;;;14.37;10.90;;;;;;;-145.14;100.00;70583.66;4989352;28;20193;-76
2022/03/11 09:26:33;;;;;;;11.90;9.70;;;;;;;-145.14;100.00;70583.66;4980809;28;20209;-75
2022/03/11 09:28:58;;;;;;;16.77;10.53;;;;;;;-145.14;100.00;70583.66;4989741;28;21193;-76
2022/03/11 09:31:24;;;;;;;13.27;10.63;;;;;;;-145.14;100.00;70583.66;4985222;28;20213;-76
2022/03/11 09:33:50;;;;;;;12.97;10.17;;;;;;;-145.14;100.00;70583.66;4988143;28;20264;-76
2022/03/11 09:36:15;;;;;;;15.80;10.43;;;;;;;-145.14;100.00;70583.66;4988497;28;20196;-76
2022/03/11 09:38:41;;;;;;;13.80;10.70;;;;;;;-145.14;100.00;70583.66;4992396;28;20431;-76
2022/03/11 09:41:07;;;;;;;13.07;10.40;;;;;;;-145.14;100.00;70583.66;4990198;28;20650;-76
2022/03/11 09:43:35;;;;;;;15.10;9.77;;;;;;;-145.14;100.00;70583.66;4988335;28;20197;-76
2022/03/11 09:46:00;;;;;;;15.73;11.30;;;;;;;-145.14;100.00;70583.66;4988961;28;20468;-75
2022/03/11 09:48:26;;;;;;;12.67;10.13;;;;;;;-145.14;100.00;70583.66;4970255;28;20459;-75
2022/03/11 09:50:52;;;;;;;29.73;10.83;;;;;;;-145.14;100.00;70583.66;4989895;28;20288;-75
2022/03/11 09:53:17;;;;;;;14.57;10.13;;;;;;;-145.14;100.00;70583.66;4988897;28;20272;-76
2022/03/11 09:55:43;;;;;;;12.40;9.50;;;;;;;-145.14;100.00;70583.66;4991124;28;20729;-75
2022/03/11 09:58:10;;;;;;;13.50;9.80;;;;;;;-145.14;100.00;70583.66;4989268;28;20444;-76
2022/03/11 10:00:36;;;;;;;12.80;10.03;;;;;;;-145.14;100.00;70583.66;4989487;28;20451;-76
2022/03/11 10:03:02;;;;;;;19.20;10.03;;;;;;;-145.14;100.00;70583.66;4993104;28;20478;-75
2022/03/11 10:05:50;;;;;;;13.80;9.87;;;;;;;-145.14;100.00;70583.66;4989114;28;20513;-76
2022/03/11 10:08:17;;;;;;;13.10;9.90;;;;;;;-145.14;100.00;70583.66;4990785;28;20448;-76
2022/03/11 10:10:44;;;;;;;17.20;10.17;;;;;;;-145.14;100.00;70583.66;4989797;28;20448;-76
2022/03/11 10:13:11;;;;;;;13.33;9.53;;;;;;;-145.14;100.00;70583.66;4994397;28;20471;-76
2022/03/11 10:15:39;;;;;;;14.10;10.80;;;;;;;-145.14;100.00;70583.66;4988127;28;20436;-76
2022/03/11 10:18:09;;;;;;;12.07;9.47;;;;;;;-145.14;100.00;70583.66;4991058;28;20457;-76
2022/03/11 10:20:35;;;;;;;13.27;9.77;;;;;;;-145.14;100.00;70583.66;4991235;28;20440;-76
2022/03/11 10:23:07;;;;;;;13.27;10.23;;;;;;;-145.14;100.00;70583.66;4993152;28;20493;-76
2022/03/11 10:25:32;;;;;;;12.17;8.87;;;;;;;-145.14;100.00;70583.66;4988140;28;20571;-76
2022/03/11 10:28:03;;;;;;;11.60;8.70;;;;;;;-145.14;100.00;70583.66;4987161;28;20472;-76
2022/03/11 10:30:31;;;;;;;11.57;8.90;;;;;;;-145.14;100.00;70583.66;4995931;28;20793;-76
2022/03/11 10:32:59;;;;;;;11.10;8.70;;;;;;;-145.14;100.00;70583.66;4993291;28;20469;-76
2022/03/11 10:35:47;;;;;;;13.13;9.67;;;;;;;-145.14;100.00;70583.66;4977734;28;20491;-76
2022/03/11 10:38:30;;;;;;;12.43;8.83;;;;;;;-145.14;100.00;70583.66;4992931;28;20557;-76
2022/03/11 10:40:58;;;;;;;12.70;8.87;;;;;;;-145.14;100.00;70583.66;4990316;28;20434;-76
2022/03/11 10:43:28;;;;;;;17.27;10.37;;;;;;;-145.14;100.00;70583.66;4993705;28;20459;-76
2022/03/11 10:46:02;;;;;;;17.93;9.50;;;;;;;-145.14;100.00;70583.66;4996488;28;20701;-76
2022/03/11 10:48:47;;;;;;;10.67;9.00;;;;;;;-145.14;100.00;70583.66;4997104;28;20438;-76
2022/03/11 10:51:20;;;;;;;11.23;9.00;;;;;;;-145.14;100.00;70583.66;5004305;28;20534;-76
2022/03/11 10:53:51;;;;;;;13.10;8.97;;;;;;;-145.14;100.00;70583.66;4997557;28;20474;-77